createdAt,value
2022-09-13T00:01:24.922Z,98305.88
2022-09-13T00:03:27.033Z,98301.47
2022-09-13T00:05:29.368Z,98306.19
2022-09-13T00:07:30.949Z,98302.13
2022-09-13T00:09:32.738Z,98292.19
2022-09-13T00:11:34.559Z,98292.78
2022-09-13T00:13:36.139Z,98299.47
2022-09-13T00:15:45.729Z,98293.41
2022-09-13T00:17:47.805Z,98284.34
2022-09-13T00:19:49.535Z,98286.28
2022-09-13T00:21:51.077Z,98286.56
2022-09-13T00:23:54.768Z,98290.47
2022-09-13T00:26:05.114Z,98289.16
2022-09-13T00:28:07.120Z,98283.91
2022-09-13T00:30:09.530Z,98276.78
2022-09-13T00:32:11.353Z,98271.88
2022-09-13T00:34:12.951Z,98269.44
2022-09-13T00:36:18.448Z,98279.66
2022-09-13T00:38:20.056Z,98275.56
2022-09-13T00:40:22.609Z,98270.88
2022-09-13T00:42:35.332Z,98274.75
2022-09-13T00:44:58.260Z,98287.25
2022-09-13T00:47:01.149Z,98282.84
2022-09-13T00:49:32.022Z,98279.56
2022-09-13T00:51:33.568Z,98285.09
2022-09-13T00:53:40.167Z,98283.47
2022-09-13T00:55:48.618Z,98287.34
2022-09-13T00:57:51.249Z,98299.50
2022-09-13T01:00:14.252Z,98292.38
2022-09-13T01:02:15.931Z,98282.16
2022-09-13T01:04:20.977Z,98277.75
2022-09-13T01:06:29.419Z,98280.50
2022-09-13T01:08:32.758Z,98268.63
2022-09-13T01:10:38.718Z,98274.97
2022-09-13T01:12:50.942Z,98274.97
2022-09-13T01:14:57.536Z,98263.13
2022-09-13T01:16:59.359Z,98265.06
2022-09-13T01:19:00.968Z,98272.53
2022-09-13T01:21:17.779Z,98257.09
2022-09-13T01:23:41.151Z,98257.72
2022-09-13T01:26:01.216Z,98263.22
2022-09-13T01:28:21.386Z,98263.22
2022-09-13T01:30:24.790Z,98262.72
2022-09-13T01:32:29.082Z,98260.28
2022-09-13T01:35:19.208Z,98250.97
2022-09-13T01:37:34.001Z,98255.19
2022-09-13T01:40:17.988Z,98256.63
2022-09-13T01:42:35.709Z,98258.88
2022-09-13T01:45:03.485Z,98266.13
2022-09-13T01:47:19.016Z,98254.53
2022-09-13T01:49:46.369Z,98256.81
2022-09-13T01:52:35.357Z,98262.16
2022-09-13T01:54:54.186Z,98268.28
2022-09-13T01:57:15.059Z,98262.25
2022-09-13T01:59:22.320Z,98260.59
2022-09-13T02:01:33.801Z,98259.78
2022-09-13T02:03:50.196Z,98242.22
2022-09-13T02:06:08.616Z,98243.34
2022-09-13T02:08:15.701Z,98240.91
2022-09-13T02:10:48.870Z,98241.50
2022-09-13T02:12:52.998Z,98242.63
2022-09-13T02:15:02.362Z,98235.47
2022-09-13T02:17:18.335Z,98247.13
2022-09-13T02:19:25.523Z,98241.09
2022-09-13T02:21:32.752Z,98239.47
2022-09-13T02:23:41.630Z,98242.84
2022-09-13T02:25:46.236Z,98238.47
2022-09-13T02:27:54.019Z,98230.47
2022-09-13T02:30:00.829Z,98228.03
2022-09-13T02:32:24.662Z,98213.72
2022-09-13T02:34:42.111Z,98215.16
2022-09-13T02:36:49.330Z,98201.66
2022-09-13T02:38:56.771Z,98204.75
2022-09-13T02:41:09.956Z,98201.78
2022-09-13T02:43:20.371Z,98200.94
2022-09-13T02:45:27.386Z,98205.97
2022-09-13T02:47:54.606Z,98212.09
2022-09-13T02:50:27.766Z,98191.44
2022-09-13T02:52:35.327Z,98185.44
2022-09-13T02:54:57.083Z,98182.19
2022-09-13T02:57:39.278Z,98194.63
2022-09-13T02:59:40.922Z,98202.09
2022-09-13T03:01:49.459Z,98207.09
2022-09-13T03:03:54.322Z,98208.19
2022-09-13T03:05:56.006Z,98190.03
2022-09-13T03:07:59.237Z,98199.44
2022-09-13T03:10:08.981Z,98208.00
2022-09-13T03:12:19.627Z,98206.38
2022-09-13T03:14:27.286Z,98199.53
2022-09-13T03:16:51.461Z,98198.19
2022-09-13T03:19:35.535Z,98194.13
2022-09-13T03:22:05.163Z,98204.63
2022-09-13T03:24:25.591Z,98205.75
2022-09-13T03:26:52.184Z,98196.47
2022-09-13T03:29:09.245Z,98201.47
2022-09-13T03:31:21.063Z,98210.03
2022-09-13T03:33:37.764Z,98211.41
2022-09-13T03:35:44.667Z,98211.72
2022-09-13T03:37:53.844Z,98205.72
2022-09-13T03:40:12.333Z,98204.91
2022-09-13T03:42:40.276Z,98198.38
2022-09-13T03:44:46.087Z,98200.59
2022-09-13T03:46:54.734Z,98197.84
2022-09-13T03:48:58.574Z,98192.63
2022-09-13T03:51:01.205Z,98191.00
2022-09-13T03:53:08.970Z,98186.63
2022-09-13T03:55:10.658Z,98184.97
2022-09-13T03:57:16.707Z,98185.28
2022-09-13T03:59:18.615Z,98183.63
2022-09-13T04:01:23.469Z,98183.13
2022-09-13T04:03:25.127Z,98182.63
2022-09-13T04:05:27.053Z,98185.66
2022-09-13T04:07:28.824Z,98197.00
2022-09-13T04:09:31.590Z,98196.50
2022-09-13T04:11:33.305Z,98192.41
2022-09-13T04:13:36.327Z,98202.59
2022-09-13T04:15:37.879Z,98190.25
2022-09-13T04:17:39.592Z,98190.56
2022-09-13T04:19:41.712Z,98192.78
2022-09-13T04:21:43.450Z,98198.28
2022-09-13T04:23:50.459Z,98202.47
2022-09-13T04:25:52.106Z,98218.19
2022-09-13T04:27:55.809Z,98219.31
2022-09-13T04:29:57.450Z,98221.56
2022-09-13T04:32:02.210Z,98230.91
2022-09-13T04:34:03.854Z,98228.47
2022-09-13T04:36:05.546Z,98224.91
2022-09-13T04:38:11.269Z,98229.91
2022-09-13T04:40:14.101Z,98219.16
2022-09-13T04:42:15.955Z,98218.66
2022-09-13T04:44:18.532Z,98219.47
2022-09-13T04:46:20.251Z,98212.31
2022-09-13T04:48:21.814Z,98223.66
2022-09-13T04:50:25.610Z,98219.25
2022-09-13T04:52:27.748Z,98214.06
2022-09-13T04:54:29.691Z,98217.91
2022-09-13T04:56:31.438Z,98212.72
2022-09-13T04:58:33.572Z,98211.91
2022-09-13T05:00:35.646Z,98192.13
2022-09-13T05:02:37.530Z,98204.22
2022-09-13T05:04:39.072Z,98207.28
2022-09-13T05:06:40.695Z,98214.72
2022-09-13T05:08:42.448Z,98207.59
2022-09-13T05:10:46.694Z,98204.84
2022-09-13T05:12:48.817Z,98210.66
2022-09-13T05:14:50.538Z,98203.53
2022-09-13T05:16:52.133Z,98210.97
2022-09-13T05:18:54.254Z,98208.19
2022-09-13T05:20:57.604Z,98220.31
2022-09-13T05:22:59.337Z,98214.81
2022-09-13T05:25:00.915Z,98214.81
2022-09-13T05:27:02.623Z,98195.53
2022-09-13T05:29:04.645Z,98189.44
2022-09-13T05:31:13.013Z,98187.00
2022-09-13T05:33:14.765Z,98198.81
2022-09-13T05:35:16.788Z,98191.88
2022-09-13T05:37:18.503Z,98196.59
2022-09-13T05:39:43.765Z,98191.88
2022-09-13T05:41:47.615Z,98194.34
2022-09-13T05:43:54.155Z,98185.78
2022-09-13T05:46:04.155Z,98192.63
2022-09-13T05:48:05.881Z,98196.72
2022-09-13T05:50:10.699Z,98196.44
2022-09-13T05:52:15.324Z,98185.59
2022-09-13T05:54:20.190Z,98200.72
2022-09-13T05:56:24.099Z,98203.97
2022-09-13T05:58:26.458Z,98207.28
2022-09-13T06:00:28.164Z,98212.47
2022-09-13T06:02:31.715Z,98218.72
2022-09-13T06:04:35.671Z,98219.72
2022-09-13T06:06:37.321Z,98220.78
2022-09-13T06:08:42.159Z,98222.63
2022-09-13T06:10:43.820Z,98227.22
2022-09-13T06:12:45.343Z,98225.47
2022-09-13T06:14:46.848Z,98215.78
2022-09-13T06:16:51.217Z,98218.16
2022-09-13T06:18:52.793Z,98213.66
2022-09-13T06:21:03.116Z,98221.34
2022-09-13T06:23:04.919Z,98221.28
2022-09-13T06:25:06.907Z,98217.09
2022-09-13T06:27:10.329Z,98217.31
2022-09-13T06:29:12.734Z,98212.31
2022-09-13T06:31:15.848Z,98214.97
2022-09-13T06:33:18.052Z,98213.22
2022-09-13T06:35:19.416Z,98217.00
2022-09-13T06:37:22.092Z,98209.25
2022-09-13T06:39:23.617Z,98204.75
2022-09-13T06:41:29.745Z,98223.13
2022-09-13T06:43:32.439Z,98207.78
2022-09-13T06:45:34.017Z,98209.00
2022-09-13T06:47:35.862Z,98216.38
2022-09-13T06:49:40.168Z,98211.59
2022-09-13T06:51:41.960Z,98215.03
2022-09-13T06:53:45.020Z,98214.63
2022-09-13T06:55:49.554Z,98214.50
2022-09-13T06:57:51.085Z,98216.00
2022-09-13T06:59:55.490Z,98217.22
2022-09-13T07:01:57.235Z,98214.09
2022-09-13T07:04:09.183Z,98214.81
2022-09-13T07:06:22.579Z,98209.16
2022-09-13T07:08:27.365Z,98208.72
2022-09-13T07:10:28.868Z,98214.31
2022-09-13T07:12:39.935Z,98219.91
2022-09-13T07:14:41.675Z,98221.09
2022-09-13T07:16:43.620Z,98213.72
2022-09-13T07:18:45.908Z,98221.22
2022-09-13T07:21:00.361Z,98213.81
2022-09-13T07:23:02.064Z,98203.94
2022-09-13T07:25:04.511Z,98205.94
2022-09-13T07:27:06.291Z,98212.69
2022-09-13T07:29:11.612Z,98213.53
2022-09-13T07:31:20.649Z,98202.53
2022-09-13T07:33:26.204Z,98206.78
2022-09-13T07:35:27.788Z,98222.31
2022-09-13T07:37:29.400Z,98215.66
2022-09-13T07:39:31.205Z,98214.22
2022-09-13T07:41:33.760Z,98208.72
2022-09-13T07:43:38.293Z,98211.19
2022-09-13T07:45:40.326Z,98212.88
2022-09-13T07:47:42.662Z,98205.41
2022-09-13T07:49:45.994Z,98210.94
2022-09-13T07:51:51.413Z,98207.38
2022-09-13T07:53:58.629Z,98209.66
2022-09-13T07:56:15.565Z,98215.56
2022-09-13T07:58:17.082Z,98214.25
2022-09-13T08:00:18.777Z,98222.91
2022-09-13T08:02:20.402Z,98214.75
2022-09-13T08:04:33.350Z,98217.34
2022-09-13T08:06:38.965Z,98207.75
2022-09-13T08:08:40.511Z,98219.47
2022-09-13T08:10:49.266Z,98209.84
2022-09-13T08:12:51.162Z,98214.13
2022-09-13T08:14:53.080Z,98220.31
2022-09-13T08:16:57.847Z,98226.81
2022-09-13T08:19:02.146Z,98223.88
2022-09-13T08:21:06.122Z,98227.28
2022-09-13T08:23:09.414Z,98224.00
2022-09-13T08:25:11.356Z,98224.31
2022-09-13T08:27:13.683Z,98234.56
2022-09-13T08:29:15.986Z,98227.06
2022-09-13T08:31:22.654Z,98230.28
2022-09-13T08:33:24.203Z,98227.13
2022-09-13T08:35:27.488Z,98228.78
2022-09-13T08:37:29.113Z,98229.56
2022-09-13T08:39:33.441Z,98231.47
2022-09-13T08:41:42.170Z,98233.41
2022-09-13T08:44:09.193Z,98230.91
2022-09-13T08:46:10.790Z,98230.06
2022-09-13T08:48:16.405Z,98227.91
2022-09-13T08:50:28.976Z,98230.97
2022-09-13T08:52:36.501Z,98236.63
2022-09-13T08:54:43.340Z,98228.94
2022-09-13T08:56:48.602Z,98230.69
2022-09-13T08:59:02.782Z,98233.63
2022-09-13T09:01:26.182Z,98229.03
2022-09-13T09:03:47.972Z,98235.22
2022-09-13T09:05:52.786Z,98229.44
2022-09-13T09:08:13.453Z,98221.25
2022-09-13T09:10:28.403Z,98223.16
2022-09-13T09:12:47.143Z,98213.59
2022-09-13T09:15:08.770Z,98222.66
2022-09-13T09:17:42.715Z,98213.56
2022-09-13T09:19:51.956Z,98216.41
2022-09-13T09:21:59.348Z,98216.34
2022-09-13T09:24:11.887Z,98217.88
2022-09-13T09:26:20.185Z,98223.00
2022-09-13T09:28:27.723Z,98220.47
2022-09-13T09:30:43.966Z,98218.75
2022-09-13T09:33:00.635Z,98214.09
2022-09-13T09:35:23.426Z,98216.34
2022-09-13T09:37:28.050Z,98218.09
2022-09-13T09:39:36.137Z,98214.72
2022-09-13T09:41:38.492Z,98216.81
2022-09-13T09:43:52.626Z,98201.38
2022-09-13T09:46:00.990Z,98194.66
2022-09-13T09:48:11.636Z,98199.06
2022-09-13T09:50:47.564Z,98188.28
2022-09-13T09:52:59.144Z,98190.38
2022-09-13T09:55:11.069Z,98186.41
2022-09-13T09:57:13.378Z,98179.31
2022-09-13T09:59:28.614Z,98164.63
2022-09-13T10:01:33.161Z,98168.19
2022-09-13T10:03:35.809Z,98161.13
2022-09-13T10:05:37.727Z,98143.72
2022-09-13T10:07:43.746Z,98138.28
2022-09-13T10:09:59.344Z,98147.09
2022-09-13T10:12:01.561Z,98140.94
2022-09-13T10:14:03.833Z,98135.25
2022-09-13T10:16:22.158Z,98129.53
2022-09-13T10:18:43.297Z,98134.63
2022-09-13T10:21:07.661Z,98124.59
2022-09-13T10:23:18.846Z,98126.44
2022-09-13T10:25:26.142Z,98133.03
2022-09-13T10:27:33.025Z,98141.97
2022-09-13T10:29:34.588Z,98151.72
2022-09-13T10:31:39.043Z,98159.84
2022-09-13T10:33:49.886Z,98160.38
2022-09-13T10:35:55.307Z,98158.16
2022-09-13T10:37:56.998Z,98164.28
2022-09-13T10:39:58.533Z,98162.41
2022-09-13T10:42:07.204Z,98151.47
2022-09-13T10:44:47.868Z,98148.94
2022-09-13T10:46:50.318Z,98144.84
2022-09-13T10:49:09.891Z,98139.91
2022-09-13T10:51:35.844Z,98149.72
2022-09-13T10:53:42.949Z,98139.66
2022-09-13T10:55:54.108Z,98133.16
2022-09-13T10:58:13.722Z,98133.06
2022-09-13T11:00:22.459Z,98155.66
2022-09-13T11:02:28.860Z,98149.09
2022-09-13T11:04:39.299Z,98142.97
2022-09-13T11:07:02.055Z,98146.38
2022-09-13T11:09:21.410Z,98133.00
2022-09-13T11:11:29.698Z,98127.22
2022-09-13T11:13:56.815Z,98123.38
2022-09-13T11:16:16.460Z,98115.22
2022-09-13T11:18:59.872Z,98110.69
2022-09-13T11:21:13.579Z,98117.69
2022-09-13T11:23:30.160Z,98111.41
2022-09-13T11:25:52.265Z,98106.75
2022-09-13T11:28:05.949Z,98102.88
2022-09-13T11:30:11.618Z,98103.38
2022-09-13T11:32:52.682Z,98104.16
2022-09-13T11:35:19.272Z,98112.72
2022-09-13T11:37:51.544Z,98124.34
2022-09-13T11:40:28.278Z,98110.41
2022-09-13T11:42:50.738Z,98109.66
2022-09-13T11:45:24.245Z,98122.50
2022-09-13T11:47:46.825Z,98135.75
2022-09-13T11:50:23.296Z,98148.50
2022-09-13T11:52:33.623Z,98146.50
2022-09-13T11:54:53.846Z,98143.25
2022-09-13T11:57:19.782Z,98151.53
2022-09-13T11:59:34.616Z,98148.72
2022-09-13T12:01:45.970Z,98145.84
2022-09-13T12:03:54.672Z,98146.97
2022-09-13T12:06:07.858Z,98139.31
2022-09-13T12:08:09.955Z,98136.06
2022-09-13T12:10:37.852Z,98129.13
2022-09-13T12:12:41.481Z,98125.09
2022-09-13T12:14:59.775Z,98127.41
2022-09-13T12:17:06.675Z,98139.75
2022-09-13T12:19:23.589Z,98134.47
2022-09-13T12:21:32.201Z,98129.97
2022-09-13T12:23:37.975Z,98130.72
2022-09-13T12:26:00.818Z,98121.78
2022-09-13T12:28:44.663Z,98123.59
2022-09-13T12:30:56.454Z,98123.53
2022-09-13T12:32:59.087Z,98121.91
2022-09-13T12:35:06.897Z,98121.81
2022-09-13T12:37:44.185Z,98115.38
2022-09-13T12:40:00.382Z,98120.06
2022-09-13T12:42:41.162Z,98109.53
2022-09-13T12:45:20.656Z,98097.47
2022-09-13T12:47:45.158Z,98098.19
2022-09-13T12:49:52.577Z,98103.69
2022-09-13T12:52:13.172Z,98100.03
2022-09-13T12:54:23.985Z,98104.81
2022-09-13T12:56:44.414Z,98109.50
2022-09-13T12:58:54.869Z,98110.69
2022-09-13T13:01:24.204Z,98107.34
2022-09-13T13:03:31.460Z,98106.19
2022-09-13T13:05:38.842Z,98103.31
2022-09-13T13:07:46.457Z,98095.28
2022-09-13T13:09:53.730Z,98104.06
2022-09-13T13:11:58.447Z,98092.50
2022-09-13T13:14:09.411Z,98095.28
2022-09-13T13:16:37.870Z,98098.00
2022-09-13T13:18:48.882Z,98092.88
2022-09-13T13:20:56.511Z,98088.53
2022-09-13T13:23:23.497Z,98100.50
2022-09-13T13:25:39.215Z,98097.00
2022-09-13T13:27:48.043Z,98103.09
2022-09-13T13:30:28.504Z,98095.59
2022-09-13T13:32:30.035Z,98095.69
2022-09-13T13:34:31.802Z,98092.16
2022-09-13T13:36:39.367Z,98084.66
2022-09-13T13:38:48.330Z,98085.09
2022-09-13T13:40:53.117Z,98077.63
2022-09-13T13:43:35.310Z,98079.22
2022-09-13T13:45:37.033Z,98074.53
2022-09-13T13:47:53.707Z,98062.16
2022-09-13T13:50:18.069Z,98056.13
2022-09-13T13:52:22.660Z,98059.34
2022-09-13T13:54:54.992Z,98057.81
2022-09-13T13:56:57.844Z,98062.75
2022-09-13T13:59:31.051Z,98076.88
2022-09-13T14:01:39.217Z,98072.34
2022-09-13T14:03:49.803Z,98066.16
2022-09-13T14:06:07.244Z,98062.75
2022-09-13T14:09:03.423Z,98061.75
2022-09-13T14:11:15.259Z,98061.97
2022-09-13T14:13:39.431Z,98059.72
2022-09-13T14:16:09.120Z,98049.00
2022-09-13T14:18:25.745Z,98036.72
2022-09-13T14:20:27.310Z,98037.59
2022-09-13T14:22:29.405Z,98037.22
2022-09-13T14:24:37.359Z,98035.22
2022-09-13T14:26:40.234Z,98040.44
2022-09-13T14:28:43.316Z,98036.06
2022-09-13T14:30:46.782Z,98030.81
2022-09-13T14:32:52.215Z,98040.41
2022-09-13T14:35:02.285Z,98034.00
2022-09-13T14:37:11.961Z,98043.56
2022-09-13T14:39:35.168Z,98031.13
2022-09-13T14:41:38.882Z,98031.13
2022-09-13T14:43:41.246Z,98031.91
2022-09-13T14:45:46.600Z,98024.66
2022-09-13T14:48:00.529Z,98030.25
2022-09-13T14:50:12.714Z,98018.59
2022-09-13T14:52:28.554Z,98029.38
2022-09-13T14:54:44.306Z,98024.13
2022-09-13T14:56:55.615Z,98024.13
2022-09-13T14:59:03.130Z,98014.50
2022-09-13T15:01:09.016Z,98010.53
2022-09-13T15:03:16.953Z,98002.78
2022-09-13T15:05:22.770Z,98000.81
2022-09-13T15:07:31.960Z,98010.41
2022-09-13T15:09:37.605Z,98009.94
2022-09-13T15:11:43.754Z,98010.34
2022-09-13T15:13:45.349Z,98011.97
2022-09-13T15:15:47.712Z,98013.94
2022-09-13T15:18:13.679Z,98008.69
2022-09-13T15:20:15.634Z,98004.31
2022-09-13T15:22:18.233Z,98011.47
2022-09-13T15:24:32.258Z,98004.97
2022-09-13T15:26:40.539Z,98000.56
2022-09-13T15:28:45.181Z,97998.94
2022-09-13T15:30:46.903Z,97994.91
2022-09-13T15:32:48.453Z,97998.09
2022-09-13T15:34:51.251Z,97993.22
2022-09-13T15:37:09.767Z,97999.88
2022-09-13T15:39:20.820Z,98000.25
2022-09-13T15:41:28.707Z,98001.00
2022-09-13T15:43:31.376Z,97996.94
2022-09-13T15:45:32.972Z,97995.31
2022-09-13T15:47:34.513Z,97992.91
2022-09-13T15:49:39.319Z,97988.88
2022-09-13T15:51:42.803Z,97988.44
2022-09-13T15:53:46.398Z,97989.53
2022-09-13T15:55:50.051Z,97984.28
2022-09-13T15:57:51.752Z,97983.16
2022-09-13T15:59:54.411Z,97986.25
2022-09-13T16:01:56.821Z,97974.22
2022-09-13T16:03:58.858Z,97967.38
2022-09-13T16:06:02.097Z,97964.16
2022-09-13T16:08:03.885Z,97962.53
2022-09-13T16:10:28.801Z,97964.44
2022-09-13T16:12:32.211Z,97956.06
2022-09-13T16:14:34.312Z,97950.00
2022-09-13T16:16:36.149Z,97955.16
2022-09-13T16:18:41.906Z,97955.47
2022-09-13T16:20:44.842Z,97947.81
2022-09-13T16:22:46.289Z,97946.94
2022-09-13T16:24:47.801Z,97939.31
2022-09-13T16:26:49.516Z,97941.28
2022-09-13T16:28:51.264Z,97954.00
2022-09-13T16:30:53.841Z,97953.56
2022-09-13T16:32:55.707Z,97951.50
2022-09-13T16:34:57.888Z,97953.53
2022-09-13T16:36:59.694Z,97951.09
2022-09-13T16:39:01.753Z,97947.84
2022-09-13T16:41:06.852Z,97947.41
2022-09-13T16:43:09.696Z,97950.94
2022-09-13T16:45:12.659Z,97957.25
2022-09-13T16:47:14.659Z,97957.66
2022-09-13T16:49:16.486Z,97956.75
2022-09-13T16:51:21.584Z,97943.53
2022-09-13T16:53:23.372Z,97946.22
2022-09-13T16:55:27.965Z,97944.97
2022-09-13T16:57:29.913Z,97940.91
2022-09-13T16:59:32.869Z,97940.47
2022-09-13T17:01:34.814Z,97938.50
2022-09-13T17:03:37.936Z,97945.63
2022-09-13T17:05:39.598Z,97941.94
2022-09-13T17:07:46.743Z,97935.09
2022-09-13T17:09:48.459Z,97927.81
2022-09-13T17:11:50.314Z,97929.75
2022-09-13T17:13:52.368Z,97934.09
2022-09-13T17:15:56.649Z,97936.78
2022-09-13T17:17:58.395Z,97935.97
2022-09-13T17:20:00.777Z,97949.84
2022-09-13T17:22:06.042Z,97938.59
2022-09-13T17:24:13.119Z,97937.69
2022-09-13T17:26:15.107Z,97940.88
2022-09-13T17:28:17.221Z,97937.66
2022-09-13T17:30:18.989Z,97935.13
2022-09-13T17:32:20.868Z,97943.06
2022-09-13T17:34:22.425Z,97946.22
2022-09-13T17:36:24.774Z,97930.19
2022-09-13T17:38:26.271Z,97930.94
2022-09-13T17:40:29.137Z,97932.81
2022-09-13T17:42:30.826Z,97932.34
2022-09-13T17:44:32.448Z,97929.47
2022-09-13T17:46:34.309Z,97927.41
2022-09-13T17:48:36.030Z,97933.34
2022-09-13T17:50:37.879Z,97925.69
2022-09-13T17:52:41.751Z,97930.03
2022-09-13T17:54:43.723Z,97928.75
2022-09-13T17:56:45.312Z,97936.69
2022-09-13T17:58:48.463Z,97931.13
2022-09-13T18:00:50.126Z,97930.22
2022-09-13T18:02:51.942Z,97922.13
2022-09-13T18:04:57.134Z,97926.47
2022-09-13T18:06:59.574Z,97928.00
2022-09-13T18:09:02.858Z,97926.00
2022-09-13T18:11:13.777Z,97922.75
2022-09-13T18:13:15.998Z,97926.63
2022-09-13T18:15:17.665Z,97928.16
2022-09-13T18:17:19.295Z,97936.09
2022-09-13T18:19:44.365Z,97927.28
2022-09-13T18:21:46.036Z,97932.31
2022-09-13T18:23:50.576Z,97929.91
2022-09-13T18:26:10.866Z,97941.31
2022-09-13T18:28:12.515Z,97930.44
2022-09-13T18:30:16.552Z,97931.97
2022-09-13T18:32:18.209Z,97931.84
2022-09-13T18:34:23.624Z,97935.34
2022-09-13T18:36:29.032Z,97939.75
2022-09-13T18:38:35.353Z,97948.13
2022-09-13T18:40:38.562Z,97937.78
2022-09-13T18:42:41.007Z,97935.00
2022-09-13T18:44:42.807Z,97933.81
2022-09-13T18:46:44.648Z,97932.53
2022-09-13T18:48:48.753Z,97936.03
2022-09-13T18:50:50.600Z,97932.81
2022-09-13T18:52:52.208Z,97939.19
2022-09-13T18:54:53.949Z,97928.75
2022-09-13T18:56:57.588Z,97928.31
2022-09-13T18:59:01.273Z,97932.25
2022-09-13T19:01:09.395Z,97928.56
2022-09-13T19:03:12.873Z,97930.91
2022-09-13T19:05:14.928Z,97930.47
2022-09-13T19:07:16.717Z,97933.59
2022-09-13T19:09:20.865Z,97936.38
2022-09-13T19:11:45.323Z,97938.34
2022-09-13T19:13:46.401Z,97933.03
2022-09-13T19:15:48.484Z,97935.38
2022-09-13T19:17:50.129Z,97939.31
2022-09-13T19:19:52.876Z,97946.09
2022-09-13T19:21:54.358Z,97941.66
2022-09-13T19:23:59.828Z,97948.41
2022-09-13T19:26:39.509Z,97947.16
2022-09-13T19:28:48.024Z,97955.03
2022-09-13T19:30:50.795Z,97959.00
2022-09-13T19:32:52.595Z,97947.41
2022-09-13T19:34:54.287Z,97951.34
2022-09-13T19:36:58.314Z,97942.88
2022-09-13T19:39:00.411Z,97956.81
2022-09-13T19:41:04.897Z,97938.84
2022-09-13T19:43:06.668Z,97940.03
2022-09-13T19:45:08.537Z,97934.00
2022-09-13T19:48:12.612Z,97933.19
2022-09-13T19:49:32.342Z,97940.72
2022-09-13T19:51:36.849Z,97931.09
2022-09-13T19:53:56.578Z,97929.03
2022-09-13T19:55:59.394Z,97924.97
2022-09-13T19:58:02.695Z,97931.25
2022-09-13T20:00:04.838Z,97925.69
2022-09-13T20:02:11.303Z,97931.97
2022-09-13T20:04:15.253Z,97947.03
2022-09-13T20:06:16.962Z,97947.38
2022-09-13T20:08:22.959Z,97943.34
2022-09-13T20:10:24.449Z,97938.91
2022-09-13T20:12:26.059Z,97943.22
2022-09-13T20:14:28.040Z,97940.81
2022-09-13T20:16:34.334Z,97942.31
2022-09-13T20:18:36.082Z,97950.19
2022-09-13T20:20:37.726Z,97945.00
2022-09-13T20:22:39.901Z,97948.13
2022-09-13T20:24:41.535Z,97948.47
2022-09-13T20:26:53.351Z,97939.66
2022-09-13T20:29:00.296Z,97943.16
2022-09-13T20:31:02.136Z,97943.97
2022-09-13T20:33:04.837Z,97938.28
2022-09-13T20:35:09.715Z,97942.59
2022-09-13T20:37:11.593Z,97924.97
2022-09-13T20:39:17.018Z,97924.16
2022-09-13T20:41:19.405Z,97918.97
2022-09-13T20:43:21.099Z,97929.63
2022-09-13T20:45:22.916Z,97919.66
2022-09-13T20:47:24.737Z,97921.63
2022-09-13T20:49:26.492Z,97916.41
2022-09-13T20:51:34.516Z,97927.09
2022-09-13T20:53:37.754Z,97921.53
2022-09-13T20:55:40.545Z,97919.00
2022-09-13T20:57:42.975Z,97916.53
2022-09-13T20:59:45.463Z,97916.91
2022-09-13T21:01:47.135Z,97913.19
2022-09-13T21:03:51.285Z,97918.31
2022-09-13T21:05:53.002Z,97920.63
2022-09-13T21:08:13.537Z,97915.75
2022-09-13T21:10:15.160Z,97910.56
2022-09-13T21:12:16.804Z,97910.09
2022-09-13T21:14:21.137Z,97909.63
2022-09-13T21:16:25.015Z,97923.53
2022-09-13T21:18:26.639Z,97918.34
2022-09-13T21:20:28.167Z,97920.28
2022-09-13T21:22:33.101Z,97917.06
2022-09-13T21:24:34.742Z,97920.97
2022-09-13T21:26:37.252Z,97909.03
2022-09-13T21:28:41.096Z,97908.22
2022-09-13T21:30:42.830Z,97918.53
2022-09-13T21:32:47.402Z,97916.13
2022-09-13T21:34:49.012Z,97921.19
2022-09-13T21:36:50.861Z,97904.88
2022-09-13T21:38:54.406Z,97903.25
2022-09-13T21:41:05.681Z,97905.22
2022-09-13T21:43:07.811Z,97896.88
2022-09-13T21:45:09.995Z,97896.41
2022-09-13T21:47:11.639Z,97894.00
2022-09-13T21:49:13.231Z,97893.53
2022-09-13T21:51:18.070Z,97884.69
2022-09-13T21:53:19.874Z,97896.19
2022-09-13T21:55:21.418Z,97900.13
2022-09-13T21:57:23.035Z,97896.56
2022-09-13T21:59:24.544Z,97896.88
2022-09-13T22:01:31.891Z,97894.47
2022-09-13T22:03:38.499Z,97897.13
2022-09-13T22:05:39.963Z,97897.81
2022-09-13T22:07:41.602Z,97899.81
2022-09-13T22:09:45.232Z,97914.03
2022-09-13T22:11:52.231Z,97913.56
2022-09-13T22:13:54.756Z,97916.34
2022-09-13T22:15:56.399Z,97905.94
2022-09-13T22:17:58.075Z,97903.84
2022-09-13T22:19:59.722Z,97905.81
2022-09-13T22:22:01.337Z,97908.13
2022-09-13T22:24:07.726Z,97911.25
2022-09-13T22:26:12.645Z,97902.47
2022-09-13T22:28:14.406Z,97900.00
2022-09-13T22:30:15.944Z,97905.94
2022-09-13T22:32:21.393Z,97911.50
2022-09-13T22:34:25.947Z,97908.25
2022-09-13T22:36:28.170Z,97915.31
2022-09-13T22:38:30.530Z,97918.41
2022-09-13T22:40:36.378Z,97911.25
2022-09-13T22:42:41.429Z,97914.03
2022-09-13T22:44:43.191Z,97919.94
2022-09-13T22:46:46.110Z,97912.41
2022-09-13T22:48:48.572Z,97913.59
2022-09-13T22:50:53.614Z,97913.91
2022-09-13T22:52:55.525Z,97916.22
2022-09-13T22:54:57.048Z,97912.31
2022-09-13T22:56:58.525Z,97910.66
2022-09-13T22:59:07.762Z,97906.63
2022-09-13T23:01:16.215Z,97916.59
2022-09-13T23:03:17.939Z,97908.59
2022-09-13T23:05:19.639Z,97899.78
2022-09-13T23:07:23.572Z,97898.16
2022-09-13T23:09:25.210Z,97901.75
2022-09-13T23:11:32.177Z,97905.34
2022-09-13T23:13:33.834Z,97899.31
2022-09-13T23:15:35.363Z,97894.91
2022-09-13T23:17:36.781Z,97888.53
2022-09-13T23:19:38.433Z,97881.38
2022-09-13T23:21:41.591Z,97879.75
2022-09-13T23:23:43.235Z,97869.81
2022-09-13T23:25:44.694Z,97879.28
2022-09-13T23:27:46.450Z,97874.88
2022-09-13T23:29:49.500Z,97874.88
2022-09-13T23:31:51.941Z,97864.44
2022-09-13T23:33:57.961Z,97869.19
2022-09-13T23:35:59.505Z,97860.84
2022-09-13T23:38:01.005Z,97862.81
2022-09-13T23:40:03.314Z,97854.84
2022-09-13T23:42:05.844Z,97863.50
2022-09-13T23:44:14.062Z,97859.13
2022-09-13T23:46:16.072Z,97853.56
2022-09-13T23:48:17.536Z,97858.63
2022-09-13T23:50:19.172Z,97862.59
2022-09-13T23:52:20.888Z,97867.31
2022-09-13T23:54:22.653Z,97857.72
2022-09-13T23:56:30.155Z,97852.50
2022-09-13T23:58:32.098Z,97851.69
